sensor_id;sensor_type;location;lat;lon;timestamp;P1;durP1;ratioP1;P2;durP2;ratioP2
46633;SDS011;32362;49.986;8.026;2023-09-18T00:23:09;13.75;;;7.43;;
46633;SDS011;32362;49.986;8.026;2023-09-18T00:49:50;10.50;;;5.90;;
46633;SDS011;32362;49.986;8.026;2023-09-18T01:16:34;12.68;;;5.50;;
46633;SDS011;32362;49.986;8.026;2023-09-18T01:43:35;10.23;;;5.50;;
46633;SDS011;32362;49.986;8.026;2023-09-18T02:10:17;18.80;;;6.10;;
46633;SDS011;32362;49.986;8.026;2023-09-18T02:36:58;12.13;;;6.80;;
46633;SDS011;32362;49.986;8.026;2023-09-18T03:03:39;15.27;;;6.83;;
46633;SDS011;32362;49.986;8.026;2023-09-18T03:30:22;11.57;;;6.45;;
46633;SDS011;32362;49.986;8.026;2023-09-18T03:57:04;10.77;;;5.93;;
46633;SDS011;32362;49.986;8.026;2023-09-18T04:23:45;10.57;;;6.60;;
46633;SDS011;32362;49.986;8.026;2023-09-18T04:50:26;12.02;;;5.57;;
46633;SDS011;32362;49.986;8.026;2023-09-18T05:17:09;9.77;;;6.95;;
46633;SDS011;32362;49.986;8.026;2023-09-18T05:43:52;12.85;;;7.60;;
46633;SDS011;32362;49.986;8.026;2023-09-18T06:10:33;11.32;;;6.25;;
46633;SDS011;32362;49.986;8.026;2023-09-18T06:37:14;9.23;;;5.78;;
46633;SDS011;32362;49.986;8.026;2023-09-18T07:03:56;9.75;;;4.30;;
46633;SDS011;32362;49.986;8.026;2023-09-18T07:30:36;7.75;;;3.05;;
46633;SDS011;32362;49.986;8.026;2023-09-18T07:57:17;9.55;;;2.70;;
46633;SDS011;32362;49.986;8.026;2023-09-18T08:23:59;13.43;;;2.28;;
46633;SDS011;32362;49.986;8.026;2023-09-18T08:50:40;4.45;;;1.20;;
46633;SDS011;32362;49.986;8.026;2023-09-18T09:17:21;2.58;;;0.88;;
46633;SDS011;32362;49.986;8.026;2023-09-18T09:44:02;6.20;;;1.30;;
46633;SDS011;32362;49.986;8.026;2023-09-18T10:10:46;5.70;;;1.10;;
46633;SDS011;32362;49.986;8.026;2023-09-18T10:37:28;5.65;;;1.00;;
46633;SDS011;32362;49.986;8.026;2023-09-18T11:04:17;5.03;;;1.77;;
46633;SDS011;32362;49.986;8.026;2023-09-18T11:31:00;2.65;;;1.70;;
46633;SDS011;32362;49.986;8.026;2023-09-18T11:57:42;6.75;;;2.40;;
46633;SDS011;32362;49.986;8.026;2023-09-18T12:24:26;2.83;;;1.10;;
46633;SDS011;32362;49.986;8.026;2023-09-18T12:51:07;2.63;;;1.27;;
46633;SDS011;32362;49.986;8.026;2023-09-18T13:17:49;3.45;;;1.25;;
46633;SDS011;32362;49.986;8.026;2023-09-18T13:44:31;1.23;;;1.00;;
46633;SDS011;32362;49.986;8.026;2023-09-18T14:11:12;5.15;;;1.42;;
46633;SDS011;32362;49.986;8.026;2023-09-18T14:37:53;3.65;;;1.50;;
46633;SDS011;32362;49.986;8.026;2023-09-18T15:04:33;4.72;;;1.45;;
46633;SDS011;32362;49.986;8.026;2023-09-18T15:31:14;4.85;;;1.20;;
46633;SDS011;32362;49.986;8.026;2023-09-18T15:57:55;3.78;;;1.30;;
46633;SDS011;32362;49.986;8.026;2023-09-18T16:24:36;3.15;;;1.00;;
46633;SDS011;32362;49.986;8.026;2023-09-18T16:51:17;3.28;;;1.30;;
46633;SDS011;32362;49.986;8.026;2023-09-18T17:17:58;3.78;;;1.40;;
46633;SDS011;32362;49.986;8.026;2023-09-18T17:44:40;3.65;;;1.42;;
46633;SDS011;32362;49.986;8.026;2023-09-18T18:11:21;2.70;;;1.30;;
46633;SDS011;32362;49.986;8.026;2023-09-18T18:38:02;5.65;;;1.90;;
46633;SDS011;32362;49.986;8.026;2023-09-18T19:04:45;4.72;;;1.67;;
46633;SDS011;32362;49.986;8.026;2023-09-18T19:31:25;4.23;;;2.10;;
46633;SDS011;32362;49.986;8.026;2023-09-18T19:58:06;8.50;;;2.25;;
46633;SDS011;32362;49.986;8.026;2023-09-18T20:24:48;3.25;;;1.60;;
46633;SDS011;32362;49.986;8.026;2023-09-18T20:51:31;4.55;;;1.70;;
46633;SDS011;32362;49.986;8.026;2023-09-18T21:18:13;3.25;;;1.38;;
46633;SDS011;32362;49.986;8.026;2023-09-18T21:44:53;3.03;;;1.50;;
46633;SDS011;32362;49.986;8.026;2023-09-18T22:11:34;7.67;;;2.03;;
46633;SDS011;32362;49.986;8.026;2023-09-18T22:38:18;9.07;;;3.37;;
46633;SDS011;32362;49.986;8.026;2023-09-18T23:05:19;6.55;;;2.47;;
46633;SDS011;32362;49.986;8.026;2023-09-18T23:32:00;7.20;;;2.28;;
46633;SDS011;32362;49.986;8.026;2023-09-18T23:58:43;4.00;;;2.50;;
